createdAt,value
2023-04-01T00:01:29.556Z,14.20
2023-04-01T00:03:57.308Z,13.15
2023-04-01T00:06:25.313Z,18.40
2023-04-01T00:08:53.469Z,15.30
2023-04-01T00:11:20.965Z,14.00
2023-04-01T00:13:48.840Z,17.25
2023-04-01T00:18:48.207Z,20.48
2023-04-01T00:21:16.119Z,17.80
2023-04-01T00:23:43.360Z,19.40
2023-04-01T00:26:10.889Z,20.58
2023-04-01T00:28:39.304Z,16.35
2023-04-01T00:31:10.687Z,15.93
2023-04-01T00:33:38.412Z,17.77
2023-04-01T00:36:13.190Z,19.80
2023-04-01T00:38:40.564Z,17.25
2023-04-01T00:41:08.222Z,20.25
2023-04-01T00:43:36.026Z,16.63
2023-04-01T00:46:03.354Z,15.80
2023-04-01T00:48:40.746Z,17.42
2023-04-01T00:51:14.197Z,15.02
2023-04-01T00:53:44.994Z,16.67
2023-04-01T00:56:15.733Z,17.20
2023-04-01T00:58:47.369Z,16.30
2023-04-01T01:01:14.739Z,16.75
2023-04-01T01:03:42.108Z,19.10
2023-04-01T01:06:31.098Z,16.67
2023-04-01T01:09:08.592Z,17.98
2023-04-01T01:11:48.811Z,12.60
2023-04-01T01:14:44.162Z,19.33
2023-04-01T01:17:36.144Z,16.02
2023-04-01T01:20:26.652Z,15.73
2023-04-01T01:22:57.225Z,17.40
2023-04-01T01:25:40.653Z,16.15
2023-04-01T01:28:20.326Z,14.38
2023-04-01T01:30:59.234Z,16.83
2023-04-01T01:33:49.251Z,14.48
2023-04-01T01:36:18.553Z,16.95
2023-04-01T01:41:13.963Z,12.15
2023-04-01T01:43:43.749Z,13.02
2023-04-01T01:46:16.991Z,11.73
2023-04-01T01:48:45.666Z,11.30
2023-04-01T01:51:12.917Z,11.27
2023-04-01T01:53:40.709Z,10.40
2023-04-01T01:56:09.006Z,9.77
2023-04-01T01:58:45.549Z,11.25
2023-04-01T02:01:18.402Z,9.05
2023-04-01T02:03:46.677Z,8.20
2023-04-01T02:06:17.907Z,8.43
2023-04-01T02:08:59.134Z,9.20
2023-04-01T02:11:33.849Z,7.82
2023-04-01T02:14:34.210Z,8.35
2023-04-01T02:17:09.677Z,7.45
2023-04-01T02:19:42.159Z,8.05
2023-04-01T02:22:13.136Z,8.85
2023-04-01T02:24:41.674Z,7.10
2023-04-01T02:27:10.358Z,6.50
2023-04-01T02:29:37.708Z,8.18
2023-04-01T02:32:08.423Z,7.82
2023-04-01T02:34:36.017Z,10.85
2023-04-01T02:37:03.810Z,7.10
2023-04-01T02:39:31.327Z,8.13
2023-04-01T02:41:58.655Z,7.75
2023-04-01T02:44:25.922Z,8.52
2023-04-01T02:46:53.905Z,9.35
2023-04-01T02:49:21.292Z,6.72
2023-04-01T02:51:48.508Z,7.30
2023-04-01T02:54:15.809Z,7.60
2023-04-01T02:56:43.708Z,8.82
2023-04-01T02:59:10.931Z,7.90
2023-04-01T03:01:38.247Z,6.85
2023-04-01T03:04:06.214Z,6.70
2023-04-01T03:06:33.499Z,7.40
2023-04-01T03:09:00.838Z,7.20
2023-04-01T03:11:28.076Z,6.85
2023-04-01T03:13:55.340Z,7.45
2023-04-01T03:16:22.747Z,6.22
2023-04-01T03:18:53.568Z,6.40
2023-04-01T03:21:23.611Z,7.55
2023-04-01T03:23:51.219Z,7.05
2023-04-01T03:26:19.075Z,7.43
2023-04-01T03:28:46.590Z,7.00
2023-04-01T03:31:14.295Z,8.48
2023-04-01T03:33:48.420Z,8.20
2023-04-01T03:36:16.183Z,9.48
2023-04-01T03:38:43.958Z,8.63
2023-04-01T03:41:13.749Z,9.27
2023-04-01T03:43:41.008Z,9.65
2023-04-01T03:46:08.350Z,11.18
2023-04-01T03:48:36.004Z,13.93
2023-04-01T03:51:03.272Z,12.80
2023-04-01T03:53:31.553Z,14.15
2023-04-01T03:56:05.047Z,13.05
2023-04-01T03:58:32.476Z,12.80
2023-04-01T04:00:59.864Z,13.48
2023-04-01T04:03:27.303Z,13.00
2023-04-01T04:05:54.686Z,12.15
2023-04-01T04:08:22.527Z,14.20
2023-04-01T04:10:56.416Z,13.25
2023-04-01T04:13:23.445Z,12.80
2023-04-01T04:18:26.874Z,12.43
2023-04-01T04:20:54.180Z,11.38
2023-04-01T04:23:21.476Z,13.20
2023-04-01T04:25:56.347Z,12.40
2023-04-01T04:28:23.801Z,11.60
2023-04-01T04:30:51.122Z,10.90
2023-04-01T04:33:18.589Z,10.18
2023-04-01T04:35:45.958Z,12.18
2023-04-01T04:38:13.587Z,10.73
2023-04-01T04:40:42.214Z,11.48
2023-04-01T04:43:11.988Z,11.20
2023-04-01T04:45:39.324Z,10.57
2023-04-01T04:48:06.924Z,11.85
2023-04-01T04:50:34.253Z,11.43
2023-04-01T04:53:01.694Z,10.30
2023-04-01T04:55:29.053Z,12.02
2023-04-01T04:58:16.907Z,10.10
2023-04-01T05:00:45.625Z,11.07
2023-04-01T05:03:20.413Z,10.23
2023-04-01T05:05:54.655Z,8.88
2023-04-01T05:08:22.032Z,9.98
2023-04-01T05:10:49.373Z,9.60
2023-04-01T05:13:16.621Z,9.18
2023-04-01T05:15:47.239Z,9.57
2023-04-01T05:18:14.584Z,8.75
2023-04-01T05:20:48.736Z,9.85
2023-04-01T05:23:16.721Z,8.40
2023-04-01T05:25:46.083Z,8.98
2023-04-01T05:28:13.549Z,9.10
2023-04-01T05:30:43.062Z,9.43
2023-04-01T05:33:36.930Z,9.50
2023-04-01T05:36:09.950Z,9.23
2023-04-01T05:38:37.454Z,12.00
2023-04-01T05:41:06.323Z,10.45
2023-04-01T05:43:38.342Z,9.85
2023-04-01T05:46:25.613Z,8.90
2023-04-01T05:49:06.464Z,7.85
2023-04-01T05:51:34.117Z,8.73
2023-04-01T05:54:01.348Z,8.35
2023-04-01T05:56:28.875Z,8.60
2023-04-01T05:58:56.485Z,8.55
2023-04-01T06:01:24.869Z,9.18
2023-04-01T06:03:52.469Z,8.80
2023-04-01T06:06:27.877Z,8.10
2023-04-01T06:09:02.982Z,7.80
2023-04-01T06:11:36.800Z,7.65
2023-04-01T06:14:06.232Z,7.80
2023-04-01T06:16:56.145Z,7.95
2023-04-01T06:19:51.006Z,7.78
2023-04-01T06:22:18.237Z,7.72
2023-04-01T06:24:52.567Z,7.90
2023-04-01T06:27:43.300Z,9.68
2023-04-01T06:30:13.689Z,9.38
2023-04-01T06:32:59.996Z,7.97
2023-04-01T06:35:27.416Z,7.20
2023-04-01T06:38:04.713Z,7.95
2023-04-01T06:40:32.137Z,8.65
2023-04-01T06:43:12.814Z,7.53
2023-04-01T06:46:19.949Z,8.07
2023-04-01T06:49:13.645Z,6.93
2023-04-01T06:52:31.221Z,6.40
2023-04-01T06:55:23.058Z,7.00
2023-04-01T06:58:31.606Z,6.57
2023-04-01T07:01:00.444Z,6.85
2023-04-01T07:06:02.470Z,8.07
2023-04-01T07:08:30.502Z,6.35
2023-04-01T07:10:58.410Z,7.30
2023-04-01T07:13:44.314Z,7.00
2023-04-01T07:16:22.944Z,6.55
2023-04-01T07:18:59.267Z,7.13
2023-04-01T07:21:44.505Z,7.55
2023-04-01T07:24:25.680Z,7.55
2023-04-01T07:27:03.404Z,7.85
2023-04-01T07:29:34.068Z,7.32
2023-04-01T07:32:05.675Z,8.05
2023-04-01T07:34:36.017Z,7.97
2023-04-01T07:37:16.151Z,7.53
2023-04-01T07:40:02.700Z,9.18
2023-04-01T07:42:34.929Z,7.60
2023-04-01T07:45:08.374Z,7.50
2023-04-01T07:48:03.025Z,8.00
2023-04-01T07:50:33.140Z,8.48
2023-04-01T07:53:17.142Z,7.40
2023-04-01T07:55:58.158Z,8.25
2023-04-01T07:58:34.684Z,7.75
2023-04-01T08:01:10.969Z,8.75
2023-04-01T08:03:55.800Z,8.77
2023-04-01T08:06:26.647Z,7.63
2023-04-01T08:09:11.051Z,10.55
2023-04-01T08:12:48.927Z,10.50
2023-04-01T08:16:13.301Z,8.73
2023-04-01T08:19:13.111Z,9.90
2023-04-01T08:21:43.638Z,10.07
2023-04-01T08:24:21.492Z,10.20
2023-04-01T08:26:54.947Z,9.27
2023-04-01T08:30:01.475Z,11.13
2023-04-01T08:32:41.442Z,10.18
2023-04-01T08:35:34.972Z,10.70
2023-04-01T08:38:30.828Z,12.55
2023-04-01T08:41:00.134Z,10.93
2023-04-01T08:43:59.136Z,12.10
2023-04-01T08:46:38.728Z,11.82
2023-04-01T08:49:09.137Z,9.93
2023-04-01T08:51:36.395Z,11.32
2023-04-01T08:54:16.993Z,14.75
2023-04-01T08:57:09.966Z,11.73
2023-04-01T09:00:09.646Z,11.57
2023-04-01T09:03:15.436Z,11.18
2023-04-01T09:06:23.596Z,9.73
2023-04-01T09:09:11.066Z,8.60
2023-04-01T09:11:44.982Z,9.30
2023-04-01T09:14:30.648Z,9.27
2023-04-01T09:17:36.557Z,9.45
2023-04-01T09:20:09.947Z,9.98
2023-04-01T09:22:37.296Z,8.30
2023-04-01T09:25:04.614Z,9.68
2023-04-01T09:28:01.178Z,9.02
2023-04-01T09:30:59.176Z,8.23
2023-04-01T09:33:35.617Z,8.38
2023-04-01T09:36:24.421Z,8.38
2023-04-01T09:38:59.050Z,6.55
2023-04-01T09:41:34.268Z,7.38
2023-04-01T09:44:15.530Z,8.00
2023-04-01T09:47:02.211Z,8.10
2023-04-01T09:49:29.478Z,7.68
2023-04-01T09:52:35.755Z,8.20
2023-04-01T09:55:34.006Z,8.73
2023-04-01T09:58:30.053Z,8.18
2023-04-01T10:01:46.517Z,8.70
2023-04-01T10:04:34.140Z,10.07
2023-04-01T10:07:06.929Z,9.70
2023-04-01T10:09:53.530Z,9.68
2023-04-01T10:12:26.604Z,10.63
2023-04-01T10:15:43.044Z,11.27
2023-04-01T10:18:28.651Z,11.38
2023-04-01T10:21:01.507Z,10.95
2023-04-01T10:23:50.147Z,10.38
2023-04-01T10:26:24.273Z,11.15
2023-04-01T10:29:07.073Z,11.57
2023-04-01T10:32:02.758Z,10.63
2023-04-01T10:34:46.453Z,12.07
2023-04-01T10:37:33.765Z,12.75
2023-04-01T10:40:10.431Z,12.50
2023-04-01T10:42:59.245Z,12.20
2023-04-01T10:46:01.553Z,10.77
2023-04-01T10:48:28.900Z,11.77
2023-04-01T10:50:59.160Z,11.55
2023-04-01T10:53:52.921Z,10.73
2023-04-01T10:56:38.618Z,11.35
2023-04-01T11:00:00.778Z,12.93
2023-04-01T11:03:28.248Z,11.07
2023-04-01T11:06:52.004Z,10.55
2023-04-01T11:09:40.038Z,10.20
2023-04-01T11:12:16.424Z,9.45
2023-04-01T11:15:07.152Z,9.23
2023-04-01T11:17:46.791Z,9.20
2023-04-01T11:20:23.240Z,8.73
2023-04-01T11:23:09.502Z,9.73
2023-04-01T11:25:48.927Z,6.72
2023-04-01T11:29:01.482Z,7.10
2023-04-01T11:31:38.959Z,8.32
2023-04-01T11:34:25.444Z,6.97
2023-04-01T11:37:25.380Z,7.30
2023-04-01T11:40:28.143Z,6.18
2023-04-01T11:43:32.346Z,6.53
2023-04-01T11:46:56.911Z,6.45
2023-04-01T11:49:36.475Z,8.98
2023-04-01T11:52:17.129Z,7.60
2023-04-01T11:55:06.095Z,6.93
2023-04-01T11:58:05.916Z,6.40
2023-04-01T12:00:48.014Z,8.02
2023-04-01T12:03:52.403Z,11.70
2023-04-01T12:06:48.101Z,12.30
2023-04-01T12:09:34.052Z,9.63
2023-04-01T12:12:33.687Z,11.20
2023-04-01T12:15:39.350Z,11.20
2023-04-01T12:18:06.582Z,13.88
2023-04-01T12:20:43.148Z,10.57
2023-04-01T12:23:16.741Z,16.40
2023-04-01T12:26:00.582Z,12.23
2023-04-01T12:28:43.468Z,11.23
2023-04-01T12:31:33.478Z,10.50
2023-04-01T12:34:07.165Z,11.18
2023-04-01T12:36:42.463Z,11.93
2023-04-01T12:42:05.927Z,11.52
2023-04-01T12:44:42.318Z,12.63
2023-04-01T12:47:24.270Z,15.52
2023-04-01T12:49:51.546Z,13.95
2023-04-01T12:52:38.203Z,17.05
2023-04-01T12:55:21.027Z,15.23
2023-04-01T12:57:57.436Z,15.52
2023-04-01T13:00:33.982Z,14.23
2023-04-01T13:03:04.373Z,15.75
2023-04-01T13:05:34.661Z,14.85
2023-04-01T13:08:10.420Z,15.75
2023-04-01T13:13:23.051Z,13.57
2023-04-01T13:16:08.643Z,16.00
2023-04-01T13:18:42.047Z,13.63
2023-04-01T13:21:36.526Z,12.45
2023-04-01T13:24:10.296Z,13.35
2023-04-01T13:27:16.154Z,13.93
2023-04-01T13:30:11.081Z,12.50
2023-04-01T13:32:53.036Z,12.55
2023-04-01T13:35:40.196Z,11.80
2023-04-01T13:38:39.462Z,11.25
2023-04-01T13:41:09.105Z,11.27
2023-04-01T13:43:49.674Z,11.95
2023-04-01T13:46:35.952Z,19.45
2023-04-01T13:49:14.433Z,18.65
2023-04-01T13:52:21.005Z,16.17
2023-04-01T13:55:07.461Z,12.55
2023-04-01T13:57:40.842Z,12.02
2023-04-01T14:00:30.327Z,9.70
2023-04-01T14:03:16.120Z,10.73
2023-04-01T14:05:48.935Z,8.82
2023-04-01T14:08:51.063Z,9.82
2023-04-01T14:11:24.300Z,8.85
2023-04-01T14:14:01.236Z,9.18
2023-04-01T14:16:34.837Z,9.80
2023-04-01T14:19:21.117Z,9.25
2023-04-01T14:22:22.944Z,9.60
2023-04-01T14:24:56.280Z,9.77
2023-04-01T14:27:31.612Z,9.30
2023-04-01T14:30:04.539Z,9.73
2023-04-01T14:32:47.662Z,10.02
2023-04-01T14:35:24.226Z,9.93
2023-04-01T14:38:04.465Z,9.57
2023-04-01T14:40:48.610Z,9.35
2023-04-01T14:43:16.175Z,8.93
2023-04-01T14:46:17.818Z,8.18
2023-04-01T14:51:30.754Z,9.63
2023-04-01T14:54:04.780Z,9.80
2023-04-01T14:56:43.673Z,8.68
2023-04-01T14:59:18.321Z,7.28
2023-04-01T15:02:13.876Z,9.32
2023-04-01T15:04:42.413Z,9.35
2023-04-01T15:07:21.949Z,8.82
2023-04-01T15:09:58.173Z,9.40
2023-04-01T15:12:31.416Z,7.63
2023-04-01T15:15:01.644Z,7.75
2023-04-01T15:17:28.854Z,10.05
2023-04-01T15:20:06.334Z,8.50
2023-04-01T15:22:38.881Z,8.27
2023-04-01T15:25:34.904Z,7.35
2023-04-01T15:28:02.288Z,8.40
2023-04-01T15:30:32.026Z,8.00
2023-04-01T15:32:59.332Z,7.47
2023-04-01T15:35:26.573Z,8.52
2023-04-01T15:37:56.713Z,7.80
2023-04-01T15:40:41.036Z,8.35
2023-04-01T15:43:15.934Z,8.13
2023-04-01T15:45:55.478Z,8.02
2023-04-01T15:48:35.888Z,7.68
2023-04-01T15:51:40.465Z,8.20
2023-04-01T15:54:07.733Z,8.88
2023-04-01T15:57:00.519Z,7.50
2023-04-01T15:59:39.063Z,6.85
2023-04-01T16:02:20.755Z,6.97
2023-04-01T16:05:01.934Z,7.28
2023-04-01T16:07:29.117Z,8.05
2023-04-01T16:10:11.733Z,6.97
2023-04-01T16:12:57.818Z,6.88
2023-04-01T16:15:25.059Z,6.53
2023-04-01T16:17:55.255Z,6.47
2023-04-01T16:20:25.800Z,6.68
2023-04-01T16:22:53.004Z,6.97
2023-04-01T16:25:40.841Z,6.30
2023-04-01T16:28:11.016Z,6.22
2023-04-01T16:30:57.394Z,7.40
2023-04-01T16:33:35.427Z,5.40
2023-04-01T16:36:10.161Z,5.93
2023-04-01T16:39:11.799Z,5.47
2023-04-01T16:41:43.063Z,6.55
2023-04-01T16:44:19.948Z,6.32
2023-04-01T16:46:53.269Z,6.47
2023-04-01T16:49:34.552Z,6.75
2023-04-01T16:52:13.757Z,6.53
2023-04-01T16:54:46.794Z,7.32
2023-04-01T16:57:19.354Z,7.07
2023-04-01T16:59:56.247Z,7.80
2023-04-01T17:02:50.049Z,8.00
2023-04-01T17:05:17.434Z,12.82
2023-04-01T17:07:50.757Z,14.52
2023-04-01T17:10:33.583Z,15.70
2023-04-01T17:13:10.436Z,12.75
2023-04-01T17:15:44.093Z,11.35
2023-04-01T17:18:28.062Z,10.43
2023-04-01T17:21:01.653Z,10.15
2023-04-01T17:23:45.038Z,9.35
2023-04-01T17:26:50.206Z,8.18
2023-04-01T17:29:26.625Z,7.70
2023-04-01T17:32:27.310Z,6.47
2023-04-01T17:35:04.832Z,7.68
2023-04-01T17:37:47.026Z,7.00
2023-04-01T17:42:55.098Z,7.45
2023-04-01T17:45:49.848Z,7.25
2023-04-01T17:48:20.747Z,7.50
2023-04-01T17:51:03.922Z,7.45
2023-04-01T17:53:46.518Z,7.75
2023-04-01T17:56:36.360Z,7.90
2023-04-01T17:59:32.204Z,7.88
2023-04-01T18:02:02.624Z,8.27
2023-04-01T18:04:37.449Z,8.23
2023-04-01T18:07:04.869Z,7.65
2023-04-01T18:09:48.074Z,8.02
2023-04-01T18:12:34.123Z,7.43
2023-04-01T18:15:12.848Z,8.27
2023-04-01T18:17:56.329Z,7.32
2023-04-01T18:20:26.430Z,7.70
2023-04-01T18:23:00.674Z,8.07
2023-04-01T18:25:31.068Z,8.23
2023-04-01T18:28:07.268Z,18.55
2023-04-01T18:30:36.016Z,23.02
2023-04-01T18:33:11.121Z,19.95
2023-04-01T18:35:57.382Z,18.95
2023-04-01T18:38:33.146Z,15.25
2023-04-01T18:43:45.329Z,10.10
2023-04-01T18:46:23.175Z,11.00
2023-04-01T18:48:56.817Z,8.07
2023-04-01T18:51:33.117Z,9.00
2023-04-01T18:54:02.771Z,8.10
2023-04-01T18:56:32.213Z,7.45
2023-04-01T18:59:02.822Z,8.30
2023-04-01T19:01:48.937Z,8.20
2023-04-01T19:04:19.130Z,8.88
2023-04-01T19:06:55.786Z,9.38
2023-04-01T19:09:24.868Z,8.25
2023-04-01T19:12:06.708Z,8.52
2023-04-01T19:14:36.995Z,8.00
2023-04-01T19:17:24.798Z,9.18
2023-04-01T19:20:06.466Z,8.48
2023-04-01T19:22:33.680Z,7.65
2023-04-01T19:25:14.329Z,8.07
2023-04-01T19:27:44.261Z,9.65
2023-04-01T19:30:17.809Z,8.85
2023-04-01T19:33:11.524Z,8.68
2023-04-01T19:35:45.541Z,27.30
2023-04-01T19:38:24.019Z,22.35
2023-04-01T19:41:16.630Z,14.65
2023-04-01T19:43:52.204Z,13.43
2023-04-01T19:46:29.897Z,12.68
2023-04-01T19:48:57.244Z,12.55
2023-04-01T19:51:24.522Z,10.85
2023-04-01T19:53:55.371Z,11.35
2023-04-01T19:56:24.767Z,10.85
2023-04-01T19:58:51.939Z,10.90
2023-04-01T20:01:31.941Z,9.95
2023-04-01T20:04:10.501Z,10.10
2023-04-01T20:06:47.053Z,9.45
2023-04-01T20:09:33.026Z,10.70
2023-04-01T20:12:00.205Z,11.02
2023-04-01T20:14:36.568Z,11.25
2023-04-01T20:17:10.896Z,11.68
2023-04-01T20:19:43.653Z,11.27
2023-04-01T20:22:23.628Z,10.25
2023-04-01T20:24:50.892Z,12.18
2023-04-01T20:27:43.061Z,11.23
2023-04-01T20:30:19.125Z,11.15
2023-04-01T20:32:46.464Z,10.25
2023-04-01T20:35:19.836Z,10.32
2023-04-01T20:37:53.127Z,10.18
2023-04-01T20:40:27.311Z,11.23
2023-04-01T20:43:26.846Z,10.82
2023-04-01T20:45:56.852Z,12.32
2023-04-01T20:48:27.336Z,10.57
2023-04-01T20:51:17.378Z,11.40
2023-04-01T20:53:52.473Z,11.45
2023-04-01T20:56:27.038Z,11.27
2023-04-01T20:59:31.499Z,10.30
2023-04-01T21:02:03.069Z,11.10
2023-04-01T21:07:18.687Z,9.30
2023-04-01T21:09:57.894Z,9.65
2023-04-01T21:12:30.597Z,10.77
2023-04-01T21:15:13.124Z,10.32
2023-04-01T21:17:46.427Z,10.90
2023-04-01T21:20:32.066Z,8.48
2023-04-01T21:23:18.136Z,10.52
2023-04-01T21:25:48.361Z,9.98
2023-04-01T21:28:18.480Z,10.27
2023-04-01T21:31:06.677Z,9.52
2023-04-01T21:33:39.988Z,9.48
2023-04-01T21:36:26.300Z,10.10
2023-04-01T21:38:59.639Z,10.65
2023-04-01T21:41:29.594Z,10.45
2023-04-01T21:44:17.357Z,10.40
2023-04-01T21:47:02.886Z,9.60
2023-04-01T21:49:30.138Z,11.45
2023-04-01T21:52:16.261Z,9.63
2023-04-01T21:54:46.513Z,9.80
2023-04-01T21:57:32.116Z,10.55
2023-04-01T21:59:59.445Z,9.50
2023-04-01T22:02:29.737Z,10.80
2023-04-01T22:05:17.300Z,9.63
2023-04-01T22:08:16.692Z,9.68
2023-04-01T22:10:51.624Z,12.30
2023-04-01T22:13:29.391Z,10.32
2023-04-01T22:16:16.336Z,10.18
2023-04-01T22:19:00.357Z,10.13
2023-04-01T22:21:53.025Z,10.93
2023-04-01T22:24:31.277Z,11.52
2023-04-01T22:27:09.221Z,10.15
2023-04-01T22:29:43.031Z,9.95
2023-04-01T22:32:18.482Z,10.80
2023-04-01T22:34:58.179Z,10.35
2023-04-01T22:37:33.886Z,10.73
2023-04-01T22:40:01.998Z,11.75
2023-04-01T22:42:40.906Z,11.32
2023-04-01T22:45:14.107Z,12.70
2023-04-01T22:47:46.856Z,13.32
2023-04-01T22:50:14.834Z,10.93
2023-04-01T22:52:43.601Z,11.68
2023-04-01T22:55:31.256Z,10.55
2023-04-01T22:57:58.522Z,12.43
2023-04-01T23:00:29.636Z,13.68
2023-04-01T23:03:03.138Z,12.88
2023-04-01T23:05:30.703Z,15.02
2023-04-01T23:08:16.635Z,12.57
2023-04-01T23:11:02.674Z,12.65
2023-04-01T23:13:32.741Z,12.05
2023-04-01T23:16:00.513Z,13.63
2023-04-01T23:18:56.548Z,16.45
2023-04-01T23:21:30.365Z,13.85
2023-04-01T23:24:09.801Z,14.68
2023-04-01T23:26:48.202Z,15.68
2023-04-01T23:29:17.397Z,14.68
2023-04-01T23:31:48.161Z,13.55
2023-04-01T23:34:15.456Z,13.02
2023-04-01T23:36:44.329Z,14.52
2023-04-01T23:39:22.189Z,14.05
2023-04-01T23:41:49.953Z,14.68
2023-04-01T23:44:17.499Z,13.40
2023-04-01T23:46:46.550Z,14.63
2023-04-01T23:49:15.889Z,13.55
2023-04-01T23:52:03.653Z,14.63
2023-04-01T23:54:33.060Z,15.07
2023-04-01T23:59:27.578Z,14.52
